createdAt,value
2022-09-03T00:00:07.022Z,60.89
2022-09-03T00:02:45.881Z,61.53
2022-09-03T00:05:25.732Z,60.59
2022-09-03T00:08:10.283Z,60.03
2022-09-03T00:10:56.290Z,60.79
2022-09-03T00:13:31.855Z,62.24
2022-09-03T00:16:01.943Z,63.26
2022-09-03T00:18:33.507Z,63.69
2022-09-03T00:21:09.863Z,63.94
2022-09-03T00:23:40.835Z,63.93
2022-09-03T00:26:15.440Z,63.74
2022-09-03T00:28:48.523Z,63.10
2022-09-03T00:31:28.403Z,63.25
2022-09-03T00:34:05.268Z,63.68
2022-09-03T00:36:50.967Z,64.27
2022-09-03T00:39:21.429Z,63.75
2022-09-03T00:42:08.678Z,64.62
2022-09-03T00:44:48.660Z,64.52
2022-09-03T00:47:25.599Z,64.53
2022-09-03T00:50:31.181Z,64.90
2022-09-03T00:53:23.099Z,65.12
2022-09-03T00:56:02.562Z,64.56
2022-09-03T00:58:32.831Z,64.75
2022-09-03T01:01:06.094Z,65.14
2022-09-03T01:04:07.756Z,65.64
2022-09-03T01:06:58.603Z,65.38
2022-09-03T01:09:33.570Z,65.47
2022-09-03T01:12:18.806Z,66.62
2022-09-03T01:14:52.666Z,65.77
2022-09-03T01:17:33.003Z,65.69
2022-09-03T01:20:38.497Z,66.38
2022-09-03T01:23:27.743Z,65.62
2022-09-03T01:26:15.982Z,65.60
2022-09-03T01:29:07.508Z,65.10
2022-09-03T01:31:50.088Z,65.14
2022-09-03T01:34:45.040Z,64.35
2022-09-03T01:37:33.865Z,62.77
2022-09-03T01:40:38.674Z,62.16
2022-09-03T01:43:45.491Z,62.03
2022-09-03T01:46:24.973Z,61.78
2022-09-03T01:48:52.386Z,61.63
2022-09-03T01:51:25.447Z,61.10
2022-09-03T01:54:20.978Z,62.00
2022-09-03T01:57:35.326Z,63.54
2022-09-03T02:00:20.508Z,64.50
2022-09-03T02:02:51.589Z,64.68
2022-09-03T02:05:24.174Z,65.16
2022-09-03T02:07:57.154Z,66.10
2022-09-03T02:10:31.591Z,65.86
2022-09-03T02:13:09.854Z,65.24
2022-09-03T02:15:40.075Z,65.38
2022-09-03T02:18:15.295Z,65.24
2022-09-03T02:20:43.056Z,65.31
2022-09-03T02:23:11.127Z,65.20
2022-09-03T02:25:47.174Z,66.28
2022-09-03T02:28:16.996Z,66.15
2022-09-03T02:30:45.510Z,67.39
2022-09-03T02:33:13.014Z,67.02
2022-09-03T02:35:41.741Z,67.46
2022-09-03T02:38:11.820Z,66.95
2022-09-03T02:40:39.739Z,67.91
2022-09-03T02:43:14.102Z,68.42
2022-09-03T02:45:47.674Z,68.84
2022-09-03T02:48:22.888Z,69.44
2022-09-03T02:50:50.485Z,68.64
2022-09-03T02:53:18.089Z,69.57
2022-09-03T02:55:46.046Z,69.43
2022-09-03T02:58:14.040Z,68.71
2022-09-03T03:00:41.570Z,68.60
2022-09-03T03:03:08.983Z,69.24
2022-09-03T03:05:45.269Z,69.09
2022-09-03T03:08:15.346Z,69.23
2022-09-03T03:10:46.728Z,68.06
2022-09-03T03:13:14.499Z,69.07
2022-09-03T03:15:42.528Z,69.24
2022-09-03T03:18:12.104Z,68.61
2022-09-03T03:20:40.478Z,68.27
2022-09-03T03:23:09.007Z,68.56
2022-09-03T03:25:38.744Z,69.70
2022-09-03T03:28:07.119Z,69.51
2022-09-03T03:30:38.636Z,68.79
2022-09-03T03:33:07.515Z,68.39
2022-09-03T03:35:36.216Z,69.39
2022-09-03T03:38:04.131Z,70.47
2022-09-03T03:40:31.558Z,70.27
2022-09-03T03:42:59.122Z,70.61
2022-09-03T03:45:26.780Z,71.17
2022-09-03T03:47:58.244Z,71.33
2022-09-03T03:50:25.870Z,71.04
2022-09-03T03:52:53.247Z,70.18
2022-09-03T03:55:20.779Z,70.41
2022-09-03T03:57:48.227Z,69.56
2022-09-03T04:00:16.067Z,69.88
2022-09-03T04:02:43.739Z,70.72
2022-09-03T04:05:11.125Z,71.46
2022-09-03T04:07:38.916Z,71.33
2022-09-03T04:10:09.493Z,72.09
2022-09-03T04:12:36.927Z,71.94
2022-09-03T04:15:05.343Z,71.97
2022-09-03T04:17:32.897Z,73.23
2022-09-03T04:20:00.270Z,72.48
2022-09-03T04:22:29.515Z,72.70
2022-09-03T04:24:56.863Z,71.95
2022-09-03T04:27:24.859Z,71.59
2022-09-03T04:29:52.246Z,73.41
2022-09-03T04:32:38.170Z,73.67
2022-09-03T04:35:06.052Z,73.62
2022-09-03T04:37:33.578Z,72.94
2022-09-03T04:40:01.057Z,72.99
2022-09-03T04:42:28.495Z,72.75
2022-09-03T04:44:55.896Z,72.72
2022-09-03T04:47:23.594Z,73.44
2022-09-03T04:49:50.991Z,73.74
2022-09-03T04:52:19.581Z,74.69
2022-09-03T04:54:46.949Z,75.10
2022-09-03T04:57:14.347Z,74.68
2022-09-03T04:59:42.792Z,74.53
2022-09-03T05:02:10.502Z,75.01
2022-09-03T05:04:38.037Z,75.61
2022-09-03T05:07:05.455Z,75.32
2022-09-03T05:09:32.894Z,74.82
2022-09-03T05:12:02.434Z,75.77
2022-09-03T05:14:29.851Z,76.38
2022-09-03T05:16:57.286Z,76.10
2022-09-03T05:19:26.090Z,75.03
2022-09-03T05:21:53.468Z,74.85
2022-09-03T05:24:21.188Z,74.03
2022-09-03T05:26:49.147Z,73.64
2022-09-03T05:29:16.630Z,74.22
2022-09-03T05:31:44.067Z,74.67
2022-09-03T05:34:16.392Z,73.54
2022-09-03T05:36:47.102Z,73.42
2022-09-03T05:39:14.543Z,72.92
2022-09-03T05:41:44.945Z,72.89
2022-09-03T05:44:12.401Z,73.20
2022-09-03T05:46:41.943Z,72.88
2022-09-03T05:49:09.624Z,72.72
2022-09-03T05:51:39.868Z,71.62
2022-09-03T05:54:11.396Z,72.08
2022-09-03T05:56:40.261Z,70.00
2022-09-03T05:59:09.555Z,68.22
2022-09-03T06:01:39.387Z,67.28
2022-09-03T06:04:12.678Z,67.61
2022-09-03T06:06:42.610Z,68.46
2022-09-03T06:09:13.707Z,68.00
2022-09-03T06:11:42.636Z,66.47
2022-09-03T06:14:13.253Z,65.47
2022-09-03T06:16:43.588Z,65.65
2022-09-03T06:19:12.056Z,62.82
2022-09-03T06:21:44.707Z,63.31
2022-09-03T06:24:17.590Z,63.17
2022-09-03T06:26:45.511Z,60.67
2022-09-03T06:29:13.418Z,60.80
2022-09-03T06:31:40.942Z,58.74
2022-09-03T06:34:08.568Z,57.39
2022-09-03T06:36:36.142Z,58.85
2022-09-03T06:39:03.747Z,59.61
2022-09-03T06:41:35.487Z,59.83
2022-09-03T06:44:05.676Z,57.63
2022-09-03T06:46:39.091Z,53.29
2022-09-03T06:49:06.885Z,47.34
2022-09-03T06:51:34.449Z,45.60
2022-09-03T06:54:10.627Z,43.90
2022-09-03T06:56:41.243Z,43.15
2022-09-03T06:59:14.083Z,45.49
2022-09-03T07:01:45.310Z,46.46
2022-09-03T07:04:16.300Z,46.85
2022-09-03T07:06:44.491Z,46.60
2022-09-03T07:09:13.408Z,44.87
2022-09-03T07:11:47.498Z,45.64
2022-09-03T07:14:17.415Z,45.01
2022-09-03T07:16:46.293Z,45.04
2022-09-03T07:19:14.266Z,47.11
2022-09-03T07:21:48.156Z,45.87
2022-09-03T07:24:18.129Z,46.48
2022-09-03T07:26:48.925Z,45.59
2022-09-03T07:29:20.607Z,46.17
2022-09-03T07:31:51.992Z,44.90
2022-09-03T07:34:22.121Z,44.46
2022-09-03T07:36:51.882Z,44.52
2022-09-03T07:39:19.994Z,42.87
2022-09-03T07:41:47.704Z,44.24
2022-09-03T07:44:20.210Z,44.03
2022-09-03T07:46:51.413Z,43.07
2022-09-03T07:49:21.219Z,44.80
2022-09-03T07:51:52.338Z,45.69
2022-09-03T07:54:21.573Z,43.42
2022-09-03T07:56:49.368Z,43.92
2022-09-03T07:59:16.739Z,42.42
2022-09-03T08:01:44.418Z,41.69
2022-09-03T08:04:11.967Z,40.86
2022-09-03T08:06:39.706Z,41.85
2022-09-03T08:09:11.362Z,43.84
2022-09-03T08:11:40.196Z,43.39
2022-09-03T08:14:10.032Z,41.13
2022-09-03T08:16:47.978Z,40.28
2022-09-03T08:19:18.239Z,37.88
2022-09-03T08:21:45.991Z,35.63
2022-09-03T08:24:15.992Z,36.65
2022-09-03T08:26:47.609Z,36.33
2022-09-03T08:29:18.356Z,36.27
2022-09-03T08:31:45.888Z,35.05
2022-09-03T08:34:14.686Z,35.70
2022-09-03T08:36:42.407Z,35.29
2022-09-03T08:39:13.458Z,35.00
2022-09-03T08:42:11.587Z,36.52
2022-09-03T08:44:41.914Z,35.62
2022-09-03T08:48:06.757Z,35.90
2022-09-03T08:50:44.399Z,33.62
2022-09-03T08:53:46.202Z,32.69
2022-09-03T08:56:31.143Z,31.65
2022-09-03T08:59:00.819Z,33.10
2022-09-03T09:01:35.349Z,32.19
2022-09-03T09:04:24.469Z,34.30
2022-09-03T09:07:07.656Z,35.37
2022-09-03T09:10:07.430Z,35.05
2022-09-03T09:12:46.790Z,34.26
2022-09-03T09:15:42.930Z,34.93
2022-09-03T09:18:51.778Z,33.19
2022-09-03T09:21:27.880Z,34.48
2022-09-03T09:24:02.088Z,33.30
2022-09-03T09:26:30.103Z,34.38
2022-09-03T09:29:09.448Z,33.92
2022-09-03T09:31:40.078Z,35.09
2022-09-03T09:34:09.288Z,36.74
2022-09-03T09:36:52.242Z,36.99
2022-09-03T09:39:20.968Z,37.06
2022-09-03T09:42:10.037Z,36.83
2022-09-03T09:44:39.622Z,37.02
2022-09-03T09:47:39.353Z,34.84
2022-09-03T09:50:26.362Z,35.57
2022-09-03T09:53:06.909Z,34.76
2022-09-03T09:55:34.871Z,36.21
2022-09-03T09:58:14.023Z,34.25
2022-09-03T10:00:42.903Z,33.82
2022-09-03T10:03:13.798Z,33.44
2022-09-03T10:05:41.656Z,34.01
2022-09-03T10:08:21.457Z,33.46
2022-09-03T10:10:50.499Z,33.72
2022-09-03T10:13:40.580Z,35.00
2022-09-03T10:16:30.339Z,36.47
2022-09-03T10:19:06.871Z,35.50
2022-09-03T10:21:40.611Z,32.61
2022-09-03T10:24:23.095Z,31.53
2022-09-03T10:26:50.508Z,33.07
2022-09-03T10:29:22.222Z,33.99
2022-09-03T10:31:58.759Z,31.96
2022-09-03T10:34:38.688Z,32.01
2022-09-03T10:37:25.011Z,32.42
2022-09-03T10:39:58.992Z,32.02
2022-09-03T10:42:54.361Z,31.74
2022-09-03T10:45:47.331Z,32.45
2022-09-03T10:48:52.120Z,35.10
2022-09-03T10:51:34.197Z,37.02
2022-09-03T10:54:34.365Z,38.21
2022-09-03T10:57:45.219Z,36.86
2022-09-03T11:00:16.222Z,39.01
2022-09-03T11:03:05.459Z,39.18
2022-09-03T11:05:39.309Z,39.01
2022-09-03T11:08:17.019Z,39.37
2022-09-03T11:10:56.535Z,37.82
2022-09-03T11:13:31.306Z,38.57
2022-09-03T11:16:05.043Z,37.85
2022-09-03T11:18:40.871Z,35.66
2022-09-03T11:21:13.132Z,35.38
2022-09-03T11:23:58.190Z,36.03
2022-09-03T11:26:27.832Z,36.28
2022-09-03T11:29:01.147Z,37.00
2022-09-03T11:32:02.367Z,36.80
2022-09-03T11:34:34.003Z,36.48
2022-09-03T11:37:18.653Z,36.34
2022-09-03T11:39:56.568Z,37.74
2022-09-03T11:42:39.065Z,38.36
2022-09-03T11:45:32.564Z,37.45
2022-09-03T11:48:00.066Z,37.61
2022-09-03T11:50:33.234Z,37.06
2022-09-03T11:53:30.140Z,36.91
2022-09-03T11:56:13.004Z,37.26
2022-09-03T11:58:44.173Z,38.44
2022-09-03T12:01:17.649Z,36.65
2022-09-03T12:03:50.018Z,37.61
2022-09-03T12:06:39.143Z,39.41
2022-09-03T12:09:09.489Z,40.23
2022-09-03T12:12:06.041Z,38.85
2022-09-03T12:14:36.552Z,39.43
2022-09-03T12:18:15.134Z,37.81
2022-09-03T12:20:43.706Z,39.19
2022-09-03T12:23:14.568Z,39.44
2022-09-03T12:25:47.490Z,40.57
2022-09-03T12:28:23.498Z,40.87
2022-09-03T12:30:53.462Z,40.81
2022-09-03T12:33:23.386Z,40.92
2022-09-03T12:36:01.934Z,40.76
2022-09-03T12:38:30.520Z,40.28
2022-09-03T12:43:53.296Z,40.75
2022-09-03T12:46:24.706Z,41.21
2022-09-03T12:52:06.162Z,40.50
2022-09-03T12:54:39.190Z,40.73
2022-09-03T12:57:06.881Z,39.57
2022-09-03T12:59:38.123Z,38.56
2022-09-03T13:02:16.744Z,39.17
2022-09-03T13:04:46.266Z,38.53
2022-09-03T13:07:25.795Z,38.78
2022-09-03T13:10:04.188Z,39.31
2022-09-03T13:12:53.348Z,40.81
2022-09-03T13:15:26.142Z,41.73
2022-09-03T13:18:24.518Z,41.92
2022-09-03T13:21:30.439Z,41.10
2022-09-03T13:24:15.275Z,40.36
2022-09-03T13:26:49.509Z,42.07
2022-09-03T13:29:40.175Z,41.43
2022-09-03T13:32:36.318Z,42.07
2022-09-03T13:35:30.671Z,41.52
2022-09-03T13:38:23.035Z,43.20
2022-09-03T13:41:19.728Z,41.73
2022-09-03T13:43:57.582Z,41.75
2022-09-03T13:46:36.196Z,40.74
2022-09-03T13:49:50.098Z,40.17
2022-09-03T13:52:35.012Z,39.90
2022-09-03T13:55:09.350Z,39.81
2022-09-03T13:57:36.885Z,40.06
2022-09-03T14:00:13.323Z,39.54
2022-09-03T14:03:03.779Z,40.53
2022-09-03T14:06:09.380Z,39.98
2022-09-03T14:09:04.693Z,39.55
2022-09-03T14:11:59.099Z,40.78
2022-09-03T14:14:45.806Z,40.44
2022-09-03T14:17:25.274Z,40.96
2022-09-03T14:20:04.145Z,41.54
2022-09-03T14:22:59.092Z,43.77
2022-09-03T14:25:30.735Z,45.40
2022-09-03T14:28:36.438Z,46.39
2022-09-03T14:31:12.641Z,47.44
2022-09-03T14:33:48.128Z,48.50
2022-09-03T14:36:30.277Z,47.78
2022-09-03T14:39:28.400Z,49.48
2022-09-03T14:42:09.059Z,49.56
2022-09-03T14:44:55.369Z,50.17
2022-09-03T14:47:38.344Z,50.54
2022-09-03T14:50:29.059Z,50.60
2022-09-03T14:53:09.279Z,50.45
2022-09-03T14:55:57.906Z,50.67
2022-09-03T14:58:55.350Z,51.28
2022-09-03T15:01:37.605Z,50.96
2022-09-03T15:04:25.706Z,51.13
2022-09-03T15:07:08.310Z,51.33
2022-09-03T15:10:07.017Z,51.68
2022-09-03T15:12:43.306Z,53.71
2022-09-03T15:15:19.543Z,52.19
2022-09-03T15:17:55.973Z,52.22
2022-09-03T15:20:46.943Z,51.90
2022-09-03T15:23:38.103Z,51.01
2022-09-03T15:26:40.112Z,51.67
2022-09-03T15:29:16.328Z,52.95
2022-09-03T15:32:00.751Z,53.84
2022-09-03T15:34:48.423Z,53.76
2022-09-03T15:37:30.323Z,53.71
2022-09-03T15:40:15.888Z,54.32
2022-09-03T15:42:48.824Z,54.84
2022-09-03T15:45:28.586Z,55.25
2022-09-03T15:48:05.873Z,54.80
2022-09-03T15:50:50.373Z,55.27
2022-09-03T15:53:39.890Z,56.26
2022-09-03T15:56:23.661Z,56.08
2022-09-03T15:58:56.369Z,55.64
2022-09-03T16:01:36.969Z,55.01
2022-09-03T16:04:16.562Z,54.75
2022-09-03T16:07:21.578Z,54.85
2022-09-03T16:10:23.858Z,56.29
2022-09-03T16:12:53.616Z,56.41
2022-09-03T16:15:26.037Z,55.89
2022-09-03T16:18:10.967Z,55.77
2022-09-03T16:20:55.242Z,55.49
2022-09-03T16:23:28.019Z,55.07
2022-09-03T16:26:06.968Z,56.30
2022-09-03T16:28:48.099Z,56.49
2022-09-03T16:31:48.117Z,54.93
2022-09-03T16:35:03.707Z,54.16
2022-09-03T16:37:31.053Z,54.65
2022-09-03T16:40:01.207Z,54.47
2022-09-03T16:42:40.459Z,55.43
2022-09-03T16:45:17.041Z,54.90
2022-09-03T16:48:12.728Z,55.75
2022-09-03T16:51:07.451Z,55.34
2022-09-03T16:54:05.123Z,55.34
2022-09-03T16:56:58.791Z,56.12
2022-09-03T16:59:51.047Z,56.59
2022-09-03T17:02:40.107Z,56.10
2022-09-03T17:05:45.718Z,56.59
2022-09-03T17:08:54.271Z,57.05
2022-09-03T17:11:39.836Z,57.55
2022-09-03T17:14:29.104Z,57.78
2022-09-03T17:17:08.896Z,58.51
2022-09-03T17:20:14.951Z,58.25
2022-09-03T17:23:09.851Z,58.37
2022-09-03T17:25:39.743Z,58.74
2022-09-03T17:28:42.668Z,57.84
2022-09-03T17:31:28.964Z,58.76
2022-09-03T17:34:13.466Z,59.99
2022-09-03T17:37:10.213Z,60.02
2022-09-03T17:40:02.327Z,60.30
2022-09-03T17:42:54.571Z,59.88
2022-09-03T17:45:36.523Z,60.42
2022-09-03T17:48:18.351Z,60.74
2022-09-03T17:50:59.375Z,60.97
2022-09-03T17:53:39.710Z,61.16
2022-09-03T17:56:20.249Z,61.49
2022-09-03T17:59:19.569Z,61.92
2022-09-03T18:02:19.132Z,61.86
2022-09-03T18:05:18.417Z,62.79
2022-09-03T18:08:02.749Z,62.74
2022-09-03T18:10:51.981Z,62.82
2022-09-03T18:13:56.810Z,63.55
2022-09-03T18:16:28.671Z,64.16
2022-09-03T18:19:21.180Z,64.10
2022-09-03T18:22:08.995Z,64.97
2022-09-03T18:25:06.026Z,65.28
2022-09-03T18:27:53.971Z,65.81
2022-09-03T18:30:39.923Z,65.39
2022-09-03T18:33:26.134Z,66.03
2022-09-03T18:36:16.846Z,66.13
2022-09-03T18:39:03.122Z,65.64
2022-09-03T18:42:20.588Z,65.63
2022-09-03T18:45:42.276Z,66.15
2022-09-03T18:48:53.505Z,66.54
2022-09-03T18:52:17.103Z,66.79
2022-09-03T18:55:34.239Z,66.87
2022-09-03T18:58:49.627Z,67.36
2022-09-03T19:01:35.563Z,67.29
2022-09-03T19:04:33.978Z,67.65
2022-09-03T19:07:45.803Z,67.54
2022-09-03T19:10:43.570Z,68.01
2022-09-03T19:13:35.480Z,68.17
2022-09-03T19:16:29.882Z,68.38
2022-09-03T19:19:54.831Z,68.73
2022-09-03T19:22:55.732Z,68.96
2022-09-03T19:25:43.339Z,69.10
2022-09-03T19:28:37.656Z,69.81
2022-09-03T19:31:23.405Z,69.79
2022-09-03T19:34:32.859Z,69.62
2022-09-03T19:37:30.961Z,69.60
2022-09-03T19:40:35.892Z,69.90
2022-09-03T19:43:31.587Z,69.91
2022-09-03T19:46:29.332Z,70.27
2022-09-03T19:49:54.100Z,69.83
2022-09-03T19:52:46.389Z,69.70
2022-09-03T19:55:34.937Z,70.20
2022-09-03T19:58:42.041Z,70.48
2022-09-03T20:01:28.396Z,70.09
2022-09-03T20:04:17.508Z,70.57
2022-09-03T20:07:05.270Z,70.40
2022-09-03T20:09:56.718Z,70.82
2022-09-03T20:12:28.926Z,70.16
2022-09-03T20:14:56.336Z,70.25
2022-09-03T20:17:43.503Z,70.73
2022-09-03T20:20:28.210Z,71.19
2022-09-03T20:22:58.102Z,71.91
2022-09-03T20:25:36.218Z,72.08
2022-09-03T20:28:18.444Z,71.78
2022-09-03T20:31:17.199Z,71.98
2022-09-03T20:33:47.611Z,72.45
2022-09-03T20:36:32.552Z,71.69
2022-09-03T20:39:21.203Z,71.91
2022-09-03T20:41:57.901Z,72.54
2022-09-03T20:44:53.409Z,72.80
2022-09-03T20:47:57.181Z,72.87
2022-09-03T20:50:37.450Z,72.77
2022-09-03T20:53:15.990Z,72.28
2022-09-03T20:55:49.023Z,73.48
2022-09-03T20:58:48.299Z,73.85
2022-09-03T21:01:52.240Z,74.38
2022-09-03T21:04:57.301Z,75.72
2022-09-03T21:07:59.811Z,76.27
2022-09-03T21:10:33.244Z,76.43
2022-09-03T21:13:11.603Z,75.35
2022-09-03T21:15:46.821Z,74.90
2022-09-03T21:18:33.483Z,74.76
2022-09-03T21:21:43.865Z,75.21
2022-09-03T21:24:12.440Z,75.79
2022-09-03T21:26:50.720Z,76.85
2022-09-03T21:29:26.080Z,77.33
2022-09-03T21:32:04.494Z,77.57
2022-09-03T21:34:41.036Z,77.51
2022-09-03T21:37:13.554Z,77.97
2022-09-03T21:39:54.626Z,78.61
2022-09-03T21:42:36.530Z,78.67
2022-09-03T21:45:18.273Z,78.80
2022-09-03T21:47:53.818Z,78.41
2022-09-03T21:50:25.551Z,79.02
2022-09-03T21:53:12.954Z,78.50
2022-09-03T21:56:18.782Z,79.57
2022-09-03T21:59:23.743Z,79.57
2022-09-03T22:02:23.670Z,79.59
2022-09-03T22:04:51.783Z,79.05
2022-09-03T22:07:40.662Z,79.25
2022-09-03T22:10:21.068Z,79.37
2022-09-03T22:13:14.810Z,79.43
2022-09-03T22:15:50.672Z,79.68
2022-09-03T22:18:28.937Z,79.78
2022-09-03T22:21:19.823Z,80.64
2022-09-03T22:24:23.330Z,80.12
2022-09-03T22:27:10.685Z,79.83
2022-09-03T22:29:59.763Z,80.04
2022-09-03T22:32:40.541Z,81.41
2022-09-03T22:35:38.916Z,81.91
2022-09-03T22:38:40.293Z,81.93
2022-09-03T22:41:22.761Z,80.99
2022-09-03T22:44:07.495Z,80.99
2022-09-03T22:47:13.265Z,80.41
2022-09-03T22:49:47.472Z,80.24
2022-09-03T22:52:32.102Z,81.50
2022-09-03T22:55:11.551Z,82.92
2022-09-03T22:57:49.684Z,81.51
2022-09-03T23:00:17.971Z,80.62
2022-09-03T23:02:51.133Z,79.47
2022-09-03T23:05:35.560Z,80.83
2022-09-03T23:08:14.373Z,81.79
2022-09-03T23:10:53.888Z,82.81
2022-09-03T23:13:41.994Z,82.94
2022-09-03T23:16:32.645Z,83.31
2022-09-03T23:19:05.403Z,82.27
2022-09-03T23:21:41.912Z,82.58
2022-09-03T23:24:20.423Z,83.17
2022-09-03T23:26:51.552Z,82.96
2022-09-03T23:29:26.230Z,82.75
2022-09-03T23:31:57.622Z,83.37
2022-09-03T23:34:27.095Z,84.29
2022-09-03T23:37:34.877Z,84.68
2022-09-03T23:40:05.457Z,85.83
2022-09-03T23:42:54.163Z,85.76
2022-09-03T23:45:38.775Z,86.31
2022-09-03T23:48:45.244Z,87.08
2022-09-03T23:51:42.265Z,86.99
2022-09-03T23:54:18.575Z,86.41
2022-09-03T23:57:03.714Z,87.11
